sensor_id;sensor_type;location;lat;lon;timestamp;temperature;humidity
2300;DHT22;1158;48.750;9.078;2022-08-16T00:01:18;15.60;99.90
2300;DHT22;1158;48.750;9.078;2022-08-16T00:03:45;15.70;99.90
2300;DHT22;1158;48.750;9.078;2022-08-16T00:06:12;15.70;99.90
2300;DHT22;1158;48.750;9.078;2022-08-16T00:08:39;15.60;99.90
2300;DHT22;1158;48.750;9.078;2022-08-16T00:11:07;15.50;99.90
2300;DHT22;1158;48.750;9.078;2022-08-16T00:13:36;15.40;99.90
2300;DHT22;1158;48.750;9.078;2022-08-16T00:16:04;15.40;99.90
2300;DHT22;1158;48.750;9.078;2022-08-16T00:18:30;15.40;99.90
2300;DHT22;1158;48.750;9.078;2022-08-16T00:20:57;15.40;99.90
2300;DHT22;1158;48.750;9.078;2022-08-16T00:23:24;15.40;99.90
2300;DHT22;1158;48.750;9.078;2022-08-16T00:25:51;15.40;99.90
2300;DHT22;1158;48.750;9.078;2022-08-16T00:28:18;15.50;99.90
2300;DHT22;1158;48.750;9.078;2022-08-16T00:30:47;15.50;99.90
2300;DHT22;1158;48.750;9.078;2022-08-16T00:33:14;15.40;99.90
2300;DHT22;1158;48.750;9.078;2022-08-16T00:35:41;15.40;99.90
2300;DHT22;1158;48.750;9.078;2022-08-16T00:38:07;15.50;99.90
2300;DHT22;1158;48.750;9.078;2022-08-16T00:40:37;15.50;99.90
2300;DHT22;1158;48.750;9.078;2022-08-16T00:43:07;15.50;99.90
2300;DHT22;1158;48.750;9.078;2022-08-16T00:45:37;15.40;99.90
2300;DHT22;1158;48.750;9.078;2022-08-16T00:48:10;15.30;99.90
2300;DHT22;1158;48.750;9.078;2022-08-16T00:50:39;15.30;99.90
2300;DHT22;1158;48.750;9.078;2022-08-16T00:53:09;15.30;99.90
2300;DHT22;1158;48.750;9.078;2022-08-16T00:55:39;15.10;99.90
2300;DHT22;1158;48.750;9.078;2022-08-16T00:58:08;15.10;99.90
2300;DHT22;1158;48.750;9.078;2022-08-16T01:00:36;15.00;99.90
2300;DHT22;1158;48.750;9.078;2022-08-16T01:03:08;15.00;99.90
2300;DHT22;1158;48.750;9.078;2022-08-16T01:05:36;14.90;99.90
2300;DHT22;1158;48.750;9.078;2022-08-16T01:08:05;14.90;99.90
2300;DHT22;1158;48.750;9.078;2022-08-16T01:10:33;14.80;99.90
2300;DHT22;1158;48.750;9.078;2022-08-16T01:13:04;14.90;99.90
2300;DHT22;1158;48.750;9.078;2022-08-16T01:15:33;14.90;99.90
2300;DHT22;1158;48.750;9.078;2022-08-16T01:18:02;15.00;99.90
2300;DHT22;1158;48.750;9.078;2022-08-16T01:20:34;15.20;99.90
2300;DHT22;1158;48.750;9.078;2022-08-16T01:23:09;15.30;99.90
2300;DHT22;1158;48.750;9.078;2022-08-16T01:25:42;15.50;99.90
2300;DHT22;1158;48.750;9.078;2022-08-16T01:28:12;15.60;99.90
2300;DHT22;1158;48.750;9.078;2022-08-16T01:30:41;15.60;99.90
2300;DHT22;1158;48.750;9.078;2022-08-16T01:33:09;15.70;99.90
2300;DHT22;1158;48.750;9.078;2022-08-16T01:35:38;15.90;99.90
2300;DHT22;1158;48.750;9.078;2022-08-16T01:38:18;15.90;99.90
2300;DHT22;1158;48.750;9.078;2022-08-16T01:40:47;15.90;99.90
2300;DHT22;1158;48.750;9.078;2022-08-16T01:43:15;15.80;99.90
2300;DHT22;1158;48.750;9.078;2022-08-16T01:45:42;15.80;99.90
2300;DHT22;1158;48.750;9.078;2022-08-16T01:48:10;15.70;99.90
2300;DHT22;1158;48.750;9.078;2022-08-16T01:50:39;15.70;99.90
2300;DHT22;1158;48.750;9.078;2022-08-16T01:53:07;15.70;99.90
2300;DHT22;1158;48.750;9.078;2022-08-16T01:55:33;15.70;99.90
2300;DHT22;1158;48.750;9.078;2022-08-16T01:58:02;15.70;99.90
2300;DHT22;1158;48.750;9.078;2022-08-16T02:00:29;15.70;99.90
2300;DHT22;1158;48.750;9.078;2022-08-16T02:02:56;15.60;99.90
2300;DHT22;1158;48.750;9.078;2022-08-16T02:05:23;15.50;99.90
2300;DHT22;1158;48.750;9.078;2022-08-16T02:07:50;15.50;99.90
2300;DHT22;1158;48.750;9.078;2022-08-16T02:10:16;15.50;99.90
2300;DHT22;1158;48.750;9.078;2022-08-16T02:12:43;15.50;99.90
2300;DHT22;1158;48.750;9.078;2022-08-16T02:15:13;15.50;99.90
2300;DHT22;1158;48.750;9.078;2022-08-16T02:17:40;15.60;99.90
2300;DHT22;1158;48.750;9.078;2022-08-16T02:20:08;15.70;99.90
2300;DHT22;1158;48.750;9.078;2022-08-16T02:22:35;15.70;99.90
2300;DHT22;1158;48.750;9.078;2022-08-16T02:25:06;15.80;99.90
2300;DHT22;1158;48.750;9.078;2022-08-16T02:27:34;15.80;99.90
2300;DHT22;1158;48.750;9.078;2022-08-16T02:30:01;15.90;99.90
2300;DHT22;1158;48.750;9.078;2022-08-16T02:32:29;15.90;99.90
2300;DHT22;1158;48.750;9.078;2022-08-16T02:34:55;16.00;99.90
2300;DHT22;1158;48.750;9.078;2022-08-16T02:37:22;16.00;99.90
2300;DHT22;1158;48.750;9.078;2022-08-16T02:39:49;16.00;99.90
2300;DHT22;1158;48.750;9.078;2022-08-16T02:42:16;16.10;99.90
2300;DHT22;1158;48.750;9.078;2022-08-16T02:44:43;16.10;99.90
2300;DHT22;1158;48.750;9.078;2022-08-16T02:47:10;16.10;99.90
2300;DHT22;1158;48.750;9.078;2022-08-16T02:49:38;16.00;99.90
2300;DHT22;1158;48.750;9.078;2022-08-16T02:52:05;16.00;99.90
2300;DHT22;1158;48.750;9.078;2022-08-16T02:54:32;16.00;99.90
2300;DHT22;1158;48.750;9.078;2022-08-16T02:56:59;15.90;99.90
2300;DHT22;1158;48.750;9.078;2022-08-16T02:59:26;15.80;99.90
2300;DHT22;1158;48.750;9.078;2022-08-16T03:01:53;15.80;99.90
2300;DHT22;1158;48.750;9.078;2022-08-16T03:04:21;15.70;99.90
2300;DHT22;1158;48.750;9.078;2022-08-16T03:06:49;15.70;99.90
2300;DHT22;1158;48.750;9.078;2022-08-16T03:09:16;15.60;99.90
2300;DHT22;1158;48.750;9.078;2022-08-16T03:11:43;15.50;99.90
2300;DHT22;1158;48.750;9.078;2022-08-16T03:14:11;15.40;99.90
2300;DHT22;1158;48.750;9.078;2022-08-16T03:16:38;15.30;99.90
2300;DHT22;1158;48.750;9.078;2022-08-16T03:19:06;15.20;99.90
2300;DHT22;1158;48.750;9.078;2022-08-16T03:21:33;15.10;99.90
2300;DHT22;1158;48.750;9.078;2022-08-16T03:24:02;15.10;99.90
2300;DHT22;1158;48.750;9.078;2022-08-16T03:26:28;15.10;99.90
2300;DHT22;1158;48.750;9.078;2022-08-16T03:28:56;15.00;99.90
2300;DHT22;1158;48.750;9.078;2022-08-16T03:31:23;15.00;99.90
2300;DHT22;1158;48.750;9.078;2022-08-16T03:33:49;15.00;99.90
2300;DHT22;1158;48.750;9.078;2022-08-16T03:36:16;14.90;99.90
2300;DHT22;1158;48.750;9.078;2022-08-16T03:38:43;14.90;99.90
2300;DHT22;1158;48.750;9.078;2022-08-16T03:41:11;15.00;99.90
2300;DHT22;1158;48.750;9.078;2022-08-16T03:43:38;14.90;99.90
2300;DHT22;1158;48.750;9.078;2022-08-16T03:46:05;14.90;99.90
2300;DHT22;1158;48.750;9.078;2022-08-16T03:48:37;14.80;99.90
2300;DHT22;1158;48.750;9.078;2022-08-16T03:51:05;14.80;99.90
2300;DHT22;1158;48.750;9.078;2022-08-16T03:53:33;14.80;99.90
2300;DHT22;1158;48.750;9.078;2022-08-16T03:56:00;14.80;99.90
2300;DHT22;1158;48.750;9.078;2022-08-16T03:58:29;14.70;99.90
2300;DHT22;1158;48.750;9.078;2022-08-16T04:00:55;14.70;99.90
2300;DHT22;1158;48.750;9.078;2022-08-16T04:03:22;14.70;99.90
2300;DHT22;1158;48.750;9.078;2022-08-16T04:05:49;14.60;99.90
2300;DHT22;1158;48.750;9.078;2022-08-16T04:08:16;14.60;99.90
2300;DHT22;1158;48.750;9.078;2022-08-16T04:10:46;14.70;99.90
2300;DHT22;1158;48.750;9.078;2022-08-16T04:13:14;14.70;99.90
2300;DHT22;1158;48.750;9.078;2022-08-16T04:15:42;14.90;99.90
2300;DHT22;1158;48.750;9.078;2022-08-16T04:18:09;15.00;99.90
2300;DHT22;1158;48.750;9.078;2022-08-16T04:20:36;15.00;99.90
2300;DHT22;1158;48.750;9.078;2022-08-16T04:23:04;15.10;99.90
2300;DHT22;1158;48.750;9.078;2022-08-16T04:25:32;15.20;99.90
2300;DHT22;1158;48.750;9.078;2022-08-16T04:27:59;15.30;99.90
2300;DHT22;1158;48.750;9.078;2022-08-16T04:30:26;15.40;99.90
2300;DHT22;1158;48.750;9.078;2022-08-16T04:32:55;15.50;99.90
2300;DHT22;1158;48.750;9.078;2022-08-16T04:35:22;15.60;99.90
2300;DHT22;1158;48.750;9.078;2022-08-16T04:37:51;15.60;99.90
2300;DHT22;1158;48.750;9.078;2022-08-16T04:40:19;15.70;99.90
2300;DHT22;1158;48.750;9.078;2022-08-16T04:42:46;15.70;99.90
2300;DHT22;1158;48.750;9.078;2022-08-16T04:45:14;15.90;99.90
2300;DHT22;1158;48.750;9.078;2022-08-16T04:47:42;15.90;99.90
2300;DHT22;1158;48.750;9.078;2022-08-16T04:50:13;16.00;99.90
2300;DHT22;1158;48.750;9.078;2022-08-16T04:52:40;16.00;99.90
2300;DHT22;1158;48.750;9.078;2022-08-16T04:55:10;16.10;99.90
2300;DHT22;1158;48.750;9.078;2022-08-16T04:57:38;16.20;99.90
2300;DHT22;1158;48.750;9.078;2022-08-16T05:00:07;16.30;99.90
2300;DHT22;1158;48.750;9.078;2022-08-16T05:02:36;16.30;99.90
2300;DHT22;1158;48.750;9.078;2022-08-16T05:05:04;16.40;99.90
2300;DHT22;1158;48.750;9.078;2022-08-16T05:07:32;16.50;99.90
2300;DHT22;1158;48.750;9.078;2022-08-16T05:09:59;16.50;99.90
2300;DHT22;1158;48.750;9.078;2022-08-16T05:12:26;16.60;99.90
2300;DHT22;1158;48.750;9.078;2022-08-16T05:14:53;16.70;99.90
2300;DHT22;1158;48.750;9.078;2022-08-16T05:17:19;16.80;99.90
2300;DHT22;1158;48.750;9.078;2022-08-16T05:19:46;16.90;99.90
2300;DHT22;1158;48.750;9.078;2022-08-16T05:22:13;16.90;99.90
2300;DHT22;1158;48.750;9.078;2022-08-16T05:24:42;17.00;99.90
2300;DHT22;1158;48.750;9.078;2022-08-16T05:27:09;17.10;99.90
2300;DHT22;1158;48.750;9.078;2022-08-16T05:29:36;17.10;99.90
2300;DHT22;1158;48.750;9.078;2022-08-16T05:32:03;17.20;99.90
2300;DHT22;1158;48.750;9.078;2022-08-16T05:34:30;17.20;99.90
2300;DHT22;1158;48.750;9.078;2022-08-16T05:36:56;17.30;99.90
2300;DHT22;1158;48.750;9.078;2022-08-16T05:39:24;17.40;99.90
2300;DHT22;1158;48.750;9.078;2022-08-16T05:41:53;17.40;99.90
2300;DHT22;1158;48.750;9.078;2022-08-16T05:44:21;17.50;99.90
2300;DHT22;1158;48.750;9.078;2022-08-16T05:46:49;17.60;99.90
2300;DHT22;1158;48.750;9.078;2022-08-16T05:49:15;17.70;99.90
2300;DHT22;1158;48.750;9.078;2022-08-16T05:51:44;17.80;99.90
2300;DHT22;1158;48.750;9.078;2022-08-16T05:54:13;17.90;99.90
2300;DHT22;1158;48.750;9.078;2022-08-16T05:56:42;17.90;99.90
2300;DHT22;1158;48.750;9.078;2022-08-16T05:59:13;17.90;99.90
2300;DHT22;1158;48.750;9.078;2022-08-16T06:01:41;18.00;99.90
2300;DHT22;1158;48.750;9.078;2022-08-16T06:04:10;18.10;99.90
2300;DHT22;1158;48.750;9.078;2022-08-16T06:06:38;18.10;99.90
2300;DHT22;1158;48.750;9.078;2022-08-16T06:09:05;18.20;99.90
2300;DHT22;1158;48.750;9.078;2022-08-16T06:11:32;18.30;99.90
2300;DHT22;1158;48.750;9.078;2022-08-16T06:13:58;18.60;99.90
2300;DHT22;1158;48.750;9.078;2022-08-16T06:16:26;18.70;99.90
2300;DHT22;1158;48.750;9.078;2022-08-16T06:18:54;19.10;99.90
2300;DHT22;1158;48.750;9.078;2022-08-16T06:21:21;19.90;99.90
2300;DHT22;1158;48.750;9.078;2022-08-16T06:23:48;21.40;99.90
2300;DHT22;1158;48.750;9.078;2022-08-16T06:26:14;22.40;99.90
2300;DHT22;1158;48.750;9.078;2022-08-16T06:28:41;23.70;99.90
2300;DHT22;1158;48.750;9.078;2022-08-16T06:31:09;24.30;99.90
2300;DHT22;1158;48.750;9.078;2022-08-16T06:33:38;24.60;99.90
2300;DHT22;1158;48.750;9.078;2022-08-16T06:36:05;25.50;99.90
2300;DHT22;1158;48.750;9.078;2022-08-16T06:38:33;26.10;99.90
2300;DHT22;1158;48.750;9.078;2022-08-16T06:41:02;26.40;99.90
2300;DHT22;1158;48.750;9.078;2022-08-16T06:43:29;26.40;99.90
2300;DHT22;1158;48.750;9.078;2022-08-16T06:45:56;26.70;99.90
2300;DHT22;1158;48.750;9.078;2022-08-16T06:48:23;27.30;99.90
2300;DHT22;1158;48.750;9.078;2022-08-16T06:50:51;27.10;99.90
2300;DHT22;1158;48.750;9.078;2022-08-16T06:53:18;27.20;99.90
2300;DHT22;1158;48.750;9.078;2022-08-16T06:55:45;26.90;99.90
2300;DHT22;1158;48.750;9.078;2022-08-16T06:58:12;27.00;99.90
2300;DHT22;1158;48.750;9.078;2022-08-16T07:00:39;26.40;99.90
2300;DHT22;1158;48.750;9.078;2022-08-16T07:03:07;26.70;99.90
2300;DHT22;1158;48.750;9.078;2022-08-16T07:05:33;26.90;99.90
2300;DHT22;1158;48.750;9.078;2022-08-16T07:08:02;26.80;99.90
2300;DHT22;1158;48.750;9.078;2022-08-16T07:10:29;26.30;99.90
2300;DHT22;1158;48.750;9.078;2022-08-16T07:12:56;26.20;99.90
2300;DHT22;1158;48.750;9.078;2022-08-16T07:15:23;25.60;99.90
2300;DHT22;1158;48.750;9.078;2022-08-16T07:17:50;26.00;99.90
2300;DHT22;1158;48.750;9.078;2022-08-16T07:20:17;26.60;99.90
2300;DHT22;1158;48.750;9.078;2022-08-16T07:22:47;27.40;99.90
2300;DHT22;1158;48.750;9.078;2022-08-16T07:25:15;27.20;99.90
2300;DHT22;1158;48.750;9.078;2022-08-16T07:27:42;27.40;99.90
2300;DHT22;1158;48.750;9.078;2022-08-16T07:30:12;27.90;99.90
2300;DHT22;1158;48.750;9.078;2022-08-16T07:32:39;27.70;99.90
2300;DHT22;1158;48.750;9.078;2022-08-16T07:35:07;28.70;99.90
2300;DHT22;1158;48.750;9.078;2022-08-16T07:37:34;28.70;99.80
2300;DHT22;1158;48.750;9.078;2022-08-16T07:40:02;28.80;99.90
2300;DHT22;1158;48.750;9.078;2022-08-16T07:42:30;29.20;99.30
2300;DHT22;1158;48.750;9.078;2022-08-16T07:44:57;29.60;98.10
2300;DHT22;1158;48.750;9.078;2022-08-16T07:47:24;29.60;97.50
2300;DHT22;1158;48.750;9.078;2022-08-16T07:49:51;29.00;98.20
2300;DHT22;1158;48.750;9.078;2022-08-16T07:52:18;29.10;98.20
2300;DHT22;1158;48.750;9.078;2022-08-16T07:54:45;29.30;98.00
2300;DHT22;1158;48.750;9.078;2022-08-16T07:57:12;29.80;96.50
2300;DHT22;1158;48.750;9.078;2022-08-16T07:59:40;30.80;95.10
2300;DHT22;1158;48.750;9.078;2022-08-16T08:02:09;30.90;94.40
2300;DHT22;1158;48.750;9.078;2022-08-16T08:04:36;30.30;94.70
2300;DHT22;1158;48.750;9.078;2022-08-16T08:07:03;30.50;94.30
2300;DHT22;1158;48.750;9.078;2022-08-16T08:09:29;29.80;94.60
2300;DHT22;1158;48.750;9.078;2022-08-16T08:11:56;29.00;95.40
2300;DHT22;1158;48.750;9.078;2022-08-16T08:14:23;29.30;95.80
2300;DHT22;1158;48.750;9.078;2022-08-16T08:16:51;28.80;95.00
2300;DHT22;1158;48.750;9.078;2022-08-16T08:19:18;28.50;95.50
2300;DHT22;1158;48.750;9.078;2022-08-16T08:21:45;28.20;96.10
2300;DHT22;1158;48.750;9.078;2022-08-16T08:24:12;27.80;96.60
2300;DHT22;1158;48.750;9.078;2022-08-16T08:26:39;27.30;97.20
2300;DHT22;1158;48.750;9.078;2022-08-16T08:29:06;26.60;98.10
2300;DHT22;1158;48.750;9.078;2022-08-16T08:31:33;26.40;98.10
2300;DHT22;1158;48.750;9.078;2022-08-16T08:34:03;25.70;98.50
2300;DHT22;1158;48.750;9.078;2022-08-16T08:36:33;25.10;99.80
2300;DHT22;1158;48.750;9.078;2022-08-16T08:39:00;25.30;99.90
2300;DHT22;1158;48.750;9.078;2022-08-16T08:41:28;26.30;99.30
2300;DHT22;1158;48.750;9.078;2022-08-16T08:43:56;27.10;98.10
2300;DHT22;1158;48.750;9.078;2022-08-16T08:46:24;28.10;96.70
2300;DHT22;1158;48.750;9.078;2022-08-16T08:48:53;29.00;95.10
2300;DHT22;1158;48.750;9.078;2022-08-16T08:51:21;30.10;93.70
2300;DHT22;1158;48.750;9.078;2022-08-16T08:53:50;31.00;92.60
2300;DHT22;1158;48.750;9.078;2022-08-16T08:56:18;30.90;91.50
2300;DHT22;1158;48.750;9.078;2022-08-16T08:58:45;28.30;94.20
2300;DHT22;1158;48.750;9.078;2022-08-16T09:01:11;27.40;96.00
2300;DHT22;1158;48.750;9.078;2022-08-16T09:03:39;27.10;96.00
2300;DHT22;1158;48.750;9.078;2022-08-16T09:06:07;26.60;96.50
2300;DHT22;1158;48.750;9.078;2022-08-16T09:08:35;26.70;96.80
2300;DHT22;1158;48.750;9.078;2022-08-16T09:11:02;27.80;96.60
2300;DHT22;1158;48.750;9.078;2022-08-16T09:13:29;29.20;94.80
2300;DHT22;1158;48.750;9.078;2022-08-16T09:15:57;29.60;93.50
2300;DHT22;1158;48.750;9.078;2022-08-16T09:18:24;30.20;92.40
2300;DHT22;1158;48.750;9.078;2022-08-16T09:20:52;29.70;92.80
2300;DHT22;1158;48.750;9.078;2022-08-16T09:23:20;28.80;93.30
2300;DHT22;1158;48.750;9.078;2022-08-16T09:25:49;28.30;94.60
2300;DHT22;1158;48.750;9.078;2022-08-16T09:28:16;27.60;94.40
2300;DHT22;1158;48.750;9.078;2022-08-16T09:30:43;27.00;95.80
2300;DHT22;1158;48.750;9.078;2022-08-16T09:33:13;26.50;96.60
2300;DHT22;1158;48.750;9.078;2022-08-16T09:35:44;26.40;96.70
2300;DHT22;1158;48.750;9.078;2022-08-16T09:38:12;26.30;96.50
2300;DHT22;1158;48.750;9.078;2022-08-16T09:40:39;26.20;97.30
2300;DHT22;1158;48.750;9.078;2022-08-16T09:43:08;26.10;97.20
2300;DHT22;1158;48.750;9.078;2022-08-16T09:45:35;26.10;96.50
2300;DHT22;1158;48.750;9.078;2022-08-16T09:48:06;25.80;97.00
2300;DHT22;1158;48.750;9.078;2022-08-16T09:50:33;25.90;97.20
2300;DHT22;1158;48.750;9.078;2022-08-16T09:53:01;25.60;97.40
2300;DHT22;1158;48.750;9.078;2022-08-16T09:55:29;25.80;97.10
2300;DHT22;1158;48.750;9.078;2022-08-16T09:57:56;25.80;97.10
2300;DHT22;1158;48.750;9.078;2022-08-16T10:00:25;26.00;97.00
2300;DHT22;1158;48.750;9.078;2022-08-16T10:02:52;26.50;97.20
2300;DHT22;1158;48.750;9.078;2022-08-16T10:05:22;26.80;96.80
2300;DHT22;1158;48.750;9.078;2022-08-16T10:07:50;26.90;96.30
2300;DHT22;1158;48.750;9.078;2022-08-16T10:10:22;26.60;96.90
2300;DHT22;1158;48.750;9.078;2022-08-16T10:12:49;26.30;96.90
2300;DHT22;1158;48.750;9.078;2022-08-16T10:15:34;26.30;97.10
2300;DHT22;1158;48.750;9.078;2022-08-16T10:18:02;26.00;97.50
2300;DHT22;1158;48.750;9.078;2022-08-16T10:20:33;25.80;97.80
2300;DHT22;1158;48.750;9.078;2022-08-16T10:23:01;26.00;97.70
2300;DHT22;1158;48.750;9.078;2022-08-16T10:25:28;26.40;97.40
2300;DHT22;1158;48.750;9.078;2022-08-16T10:27:55;27.00;97.70
2300;DHT22;1158;48.750;9.078;2022-08-16T10:30:22;27.60;97.20
2300;DHT22;1158;48.750;9.078;2022-08-16T10:32:50;27.90;95.50
2300;DHT22;1158;48.750;9.078;2022-08-16T10:35:17;27.90;95.90
2300;DHT22;1158;48.750;9.078;2022-08-16T10:37:43;27.70;95.20
2300;DHT22;1158;48.750;9.078;2022-08-16T10:40:11;27.00;95.40
2300;DHT22;1158;48.750;9.078;2022-08-16T10:42:37;26.80;95.70
2300;DHT22;1158;48.750;9.078;2022-08-16T10:45:05;27.10;95.80
2300;DHT22;1158;48.750;9.078;2022-08-16T10:47:32;27.60;94.90
2300;DHT22;1158;48.750;9.078;2022-08-16T10:50:01;28.20;95.00
2300;DHT22;1158;48.750;9.078;2022-08-16T10:52:28;29.10;92.80
2300;DHT22;1158;48.750;9.078;2022-08-16T10:54:56;29.00;93.20
2300;DHT22;1158;48.750;9.078;2022-08-16T10:57:25;29.00;92.70
2300;DHT22;1158;48.750;9.078;2022-08-16T10:59:52;29.10;92.50
2300;DHT22;1158;48.750;9.078;2022-08-16T11:02:19;29.40;91.90
2300;DHT22;1158;48.750;9.078;2022-08-16T11:04:46;29.90;91.70
2300;DHT22;1158;48.750;9.078;2022-08-16T11:07:14;30.40;90.90
2300;DHT22;1158;48.750;9.078;2022-08-16T11:09:41;29.60;91.40
2300;DHT22;1158;48.750;9.078;2022-08-16T11:12:08;29.80;91.40
2300;DHT22;1158;48.750;9.078;2022-08-16T11:14:35;29.60;91.70
2300;DHT22;1158;48.750;9.078;2022-08-16T11:17:03;29.00;92.20
2300;DHT22;1158;48.750;9.078;2022-08-16T11:19:31;28.70;92.30
2300;DHT22;1158;48.750;9.078;2022-08-16T11:21:58;28.30;92.40
2300;DHT22;1158;48.750;9.078;2022-08-16T11:24:27;28.00;93.10
2300;DHT22;1158;48.750;9.078;2022-08-16T11:26:54;28.00;93.40
2300;DHT22;1158;48.750;9.078;2022-08-16T11:29:21;27.90;93.20
2300;DHT22;1158;48.750;9.078;2022-08-16T11:31:47;27.50;93.50
2300;DHT22;1158;48.750;9.078;2022-08-16T11:34:15;27.40;93.90
2300;DHT22;1158;48.750;9.078;2022-08-16T11:36:42;27.60;93.50
2300;DHT22;1158;48.750;9.078;2022-08-16T11:39:08;27.50;93.50
2300;DHT22;1158;48.750;9.078;2022-08-16T11:41:36;27.60;93.50
2300;DHT22;1158;48.750;9.078;2022-08-16T11:44:04;27.90;92.90
2300;DHT22;1158;48.750;9.078;2022-08-16T11:46:31;27.70;92.80
2300;DHT22;1158;48.750;9.078;2022-08-16T11:49:00;27.70;93.00
2300;DHT22;1158;48.750;9.078;2022-08-16T11:51:27;27.80;93.40
2300;DHT22;1158;48.750;9.078;2022-08-16T11:53:54;28.70;92.90
2300;DHT22;1158;48.750;9.078;2022-08-16T11:56:21;29.40;91.40
2300;DHT22;1158;48.750;9.078;2022-08-16T11:58:49;29.00;91.20
2300;DHT22;1158;48.750;9.078;2022-08-16T12:01:16;28.80;91.60
2300;DHT22;1158;48.750;9.078;2022-08-16T12:03:44;28.90;91.50
2300;DHT22;1158;48.750;9.078;2022-08-16T12:06:13;28.90;91.10
2300;DHT22;1158;48.750;9.078;2022-08-16T12:08:42;29.20;91.00
2300;DHT22;1158;48.750;9.078;2022-08-16T12:11:10;29.40;91.90
2300;DHT22;1158;48.750;9.078;2022-08-16T12:13:37;30.30;90.60
2300;DHT22;1158;48.750;9.078;2022-08-16T12:16:06;31.50;90.20
2300;DHT22;1158;48.750;9.078;2022-08-16T12:18:33;31.90;85.90
2300;DHT22;1158;48.750;9.078;2022-08-16T12:21:01;32.00;85.10
2300;DHT22;1158;48.750;9.078;2022-08-16T12:23:28;31.10;86.80
2300;DHT22;1158;48.750;9.078;2022-08-16T12:25:55;30.50;87.70
2300;DHT22;1158;48.750;9.078;2022-08-16T12:28:22;30.10;87.60
2300;DHT22;1158;48.750;9.078;2022-08-16T12:30:50;29.90;88.80
2300;DHT22;1158;48.750;9.078;2022-08-16T12:33:18;30.00;88.30
2300;DHT22;1158;48.750;9.078;2022-08-16T12:35:47;30.80;86.70
2300;DHT22;1158;48.750;9.078;2022-08-16T12:38:14;30.70;86.10
2300;DHT22;1158;48.750;9.078;2022-08-16T12:40:43;31.60;84.40
2300;DHT22;1158;48.750;9.078;2022-08-16T12:43:11;31.30;84.10
2300;DHT22;1158;48.750;9.078;2022-08-16T12:45:41;30.70;85.10
2300;DHT22;1158;48.750;9.078;2022-08-16T12:48:12;30.40;86.70
2300;DHT22;1158;48.750;9.078;2022-08-16T12:50:58;29.60;86.30
2300;DHT22;1158;48.750;9.078;2022-08-16T12:53:25;29.10;88.60
2300;DHT22;1158;48.750;9.078;2022-08-16T12:55:52;28.70;88.30
2300;DHT22;1158;48.750;9.078;2022-08-16T12:58:20;28.30;88.90
2300;DHT22;1158;48.750;9.078;2022-08-16T13:00:48;28.30;90.30
2300;DHT22;1158;48.750;9.078;2022-08-16T13:03:14;28.50;90.40
2300;DHT22;1158;48.750;9.078;2022-08-16T13:05:41;28.50;88.80
2300;DHT22;1158;48.750;9.078;2022-08-16T13:08:12;28.20;89.90
2300;DHT22;1158;48.750;9.078;2022-08-16T13:10:39;28.60;89.70
2300;DHT22;1158;48.750;9.078;2022-08-16T13:13:08;30.20;88.00
2300;DHT22;1158;48.750;9.078;2022-08-16T13:15:35;31.90;82.60
2300;DHT22;1158;48.750;9.078;2022-08-16T13:18:03;32.30;81.80
2300;DHT22;1158;48.750;9.078;2022-08-16T13:20:30;32.70;81.20
2300;DHT22;1158;48.750;9.078;2022-08-16T13:23:00;32.80;80.70
2300;DHT22;1158;48.750;9.078;2022-08-16T13:25:30;33.00;80.50
2300;DHT22;1158;48.750;9.078;2022-08-16T13:27:57;32.80;78.90
2300;DHT22;1158;48.750;9.078;2022-08-16T13:30:26;33.00;79.30
2300;DHT22;1158;48.750;9.078;2022-08-16T13:32:53;34.30;77.70
2300;DHT22;1158;48.750;9.078;2022-08-16T13:35:21;35.60;75.80
2300;DHT22;1158;48.750;9.078;2022-08-16T13:37:48;36.00;73.20
2300;DHT22;1158;48.750;9.078;2022-08-16T13:40:15;36.20;72.60
2300;DHT22;1158;48.750;9.078;2022-08-16T13:42:43;35.30;71.90
2300;DHT22;1158;48.750;9.078;2022-08-16T13:45:13;36.10;71.30
2300;DHT22;1158;48.750;9.078;2022-08-16T13:47:40;36.40;68.50
2300;DHT22;1158;48.750;9.078;2022-08-16T13:50:08;35.70;68.90
2300;DHT22;1158;48.750;9.078;2022-08-16T13:52:35;36.00;68.80
2300;DHT22;1158;48.750;9.078;2022-08-16T13:55:02;36.40;69.10
2300;DHT22;1158;48.750;9.078;2022-08-16T13:57:29;36.40;66.80
2300;DHT22;1158;48.750;9.078;2022-08-16T13:59:57;33.80;68.70
2300;DHT22;1158;48.750;9.078;2022-08-16T14:02:24;33.00;71.70
2300;DHT22;1158;48.750;9.078;2022-08-16T14:04:51;32.10;72.50
2300;DHT22;1158;48.750;9.078;2022-08-16T14:07:18;31.40;74.90
2300;DHT22;1158;48.750;9.078;2022-08-16T14:09:45;32.20;75.00
2300;DHT22;1158;48.750;9.078;2022-08-16T14:12:18;33.80;70.50
2300;DHT22;1158;48.750;9.078;2022-08-16T14:14:46;35.10;69.30
2300;DHT22;1158;48.750;9.078;2022-08-16T14:17:14;35.80;68.20
2300;DHT22;1158;48.750;9.078;2022-08-16T14:19:41;35.90;65.90
2300;DHT22;1158;48.750;9.078;2022-08-16T14:22:08;36.20;65.00
2300;DHT22;1158;48.750;9.078;2022-08-16T14:24:35;36.20;65.50
2300;DHT22;1158;48.750;9.078;2022-08-16T14:27:03;37.50;63.10
2300;DHT22;1158;48.750;9.078;2022-08-16T14:29:30;37.80;63.00
2300;DHT22;1158;48.750;9.078;2022-08-16T14:31:57;39.00;60.90
2300;DHT22;1158;48.750;9.078;2022-08-16T14:34:25;38.60;59.90
2300;DHT22;1158;48.750;9.078;2022-08-16T14:36:52;36.50;61.50
2300;DHT22;1158;48.750;9.078;2022-08-16T14:39:18;35.10;63.50
2300;DHT22;1158;48.750;9.078;2022-08-16T14:41:46;34.10;65.00
2300;DHT22;1158;48.750;9.078;2022-08-16T14:44:16;33.50;63.90
2300;DHT22;1158;48.750;9.078;2022-08-16T14:46:46;32.20;66.40
2300;DHT22;1158;48.750;9.078;2022-08-16T14:49:13;31.90;66.90
2300;DHT22;1158;48.750;9.078;2022-08-16T14:51:41;32.20;68.90
2300;DHT22;1158;48.750;9.078;2022-08-16T14:54:10;33.60;67.50
2300;DHT22;1158;48.750;9.078;2022-08-16T14:56:37;34.40;64.00
2300;DHT22;1158;48.750;9.078;2022-08-16T14:59:04;34.40;64.20
2300;DHT22;1158;48.750;9.078;2022-08-16T15:01:31;34.90;63.00
2300;DHT22;1158;48.750;9.078;2022-08-16T15:03:58;35.40;62.80
2300;DHT22;1158;48.750;9.078;2022-08-16T15:06:25;35.60;62.20
2300;DHT22;1158;48.750;9.078;2022-08-16T15:08:53;35.60;61.30
2300;DHT22;1158;48.750;9.078;2022-08-16T15:11:19;35.80;61.70
2300;DHT22;1158;48.750;9.078;2022-08-16T15:13:46;36.00;61.50
2300;DHT22;1158;48.750;9.078;2022-08-16T15:16:13;36.30;60.80
2300;DHT22;1158;48.750;9.078;2022-08-16T15:18:40;35.80;63.50
2300;DHT22;1158;48.750;9.078;2022-08-16T15:21:06;36.40;63.50
2300;DHT22;1158;48.750;9.078;2022-08-16T15:23:33;35.70;65.00
2300;DHT22;1158;48.750;9.078;2022-08-16T15:26:02;35.80;64.20
2300;DHT22;1158;48.750;9.078;2022-08-16T15:28:29;36.10;63.70
2300;DHT22;1158;48.750;9.078;2022-08-16T15:30:57;36.30;63.30
2300;DHT22;1158;48.750;9.078;2022-08-16T15:33:24;36.30;62.80
2300;DHT22;1158;48.750;9.078;2022-08-16T15:35:52;36.60;62.80
2300;DHT22;1158;48.750;9.078;2022-08-16T15:38:19;36.00;64.80
2300;DHT22;1158;48.750;9.078;2022-08-16T15:40:46;35.60;64.00
2300;DHT22;1158;48.750;9.078;2022-08-16T15:43:14;35.10;64.90
2300;DHT22;1158;48.750;9.078;2022-08-16T15:45:41;35.20;64.80
2300;DHT22;1158;48.750;9.078;2022-08-16T15:48:26;35.40;65.00
2300;DHT22;1158;48.750;9.078;2022-08-16T15:50:56;35.40;64.70
2300;DHT22;1158;48.750;9.078;2022-08-16T15:53:24;36.10;64.70
2300;DHT22;1158;48.750;9.078;2022-08-16T15:55:55;36.10;63.90
2300;DHT22;1158;48.750;9.078;2022-08-16T15:58:25;35.20;64.50
2300;DHT22;1158;48.750;9.078;2022-08-16T16:00:52;35.20;64.50
2300;DHT22;1158;48.750;9.078;2022-08-16T16:03:22;35.10;65.00
2300;DHT22;1158;48.750;9.078;2022-08-16T16:05:51;34.80;65.80